Time;durP1;ratioP1;P1;durP2;ratioP2;P2;SDS_P1;SDS_P2;PMS_P1;PMS_P2;Temp;Humidity;BMP_temperature;BMP_pressure;BME280_temperature;BME280_humidity;BME280_pressure;Samples;Min_cycle;Max_cycle;Signal;HPM_P1;HPM_P2
2023/09/09 00:00:39;;;;;;;;;;;;;;;20.65;59.49;99815.19;10449156;28;1890;-66
2023/09/09 00:05:35;;;;;;;;;;;;;;;20.63;59.24;99806.44;10448816;28;945;-66
2023/09/09 00:10:31;;;;;;;;;;;;;;;20.60;59.38;99810.13;10448916;28;976;-66
2023/09/09 00:15:29;;;;;;;;;;;;;;;20.60;59.20;99802.19;10448719;28;793;-66
2023/09/09 00:20:25;;;;;;;;;;;;;;;20.62;59.15;99802.94;10449096;27;1949;-66
2023/09/09 00:25:21;;;;;;;;;;;;;;;20.60;59.25;99802.19;10455885;27;824;-66
2023/09/09 00:30:17;;;;;;;;;;;;;;;20.54;58.97;99800.72;10456973;27;1394;-66
2023/09/09 00:35:13;;;;;;;;;;;;;;;20.54;58.69;99800.72;10456556;27;909;-66
2023/09/09 00:40:09;;;;;;;;;;;;;;;20.52;58.59;99791.97;10455652;27;1975;-66
2023/09/09 00:45:04;;;;;;;;;;;;;;;20.53;58.56;99795.47;10455449;27;817;-66
2023/09/09 00:50:00;;;;;;;;;;;;;;;20.49;58.42;99793.94;10455893;27;853;-66
2023/09/09 00:54:56;;;;;;;;;;;;;;;20.46;58.52;99791.41;10455684;27;890;-66
2023/09/09 00:59:52;;;;;;;;;;;;;;;20.45;58.43;99784.44;10454354;27;1953;-66
2023/09/09 01:04:48;;;;;;;;;;;;;;;20.47;58.33;99780.75;10454705;27;1035;-66
2023/09/09 01:09:44;;;;;;;;;;;;;;;20.47;58.34;99777.25;10453965;27;943;-66
2023/09/09 01:14:40;;;;;;;;;;;;;;;20.44;58.58;99770.34;10454257;27;862;-66
2023/09/09 01:19:36;;;;;;;;;;;;;;;20.45;58.40;99776.47;10454060;27;1963;-66
2023/09/09 01:24:32;;;;;;;;;;;;;;;20.45;58.33;99771.19;10453960;27;875;-66
2023/09/09 01:29:28;;;;;;;;;;;;;;;20.42;58.31;99764.25;10453256;27;1194;-66
2023/09/09 01:34:23;;;;;;;;;;;;;;;20.39;58.14;99767.09;10452950;27;829;-67
2023/09/09 01:39:19;;;;;;;;;;;;;;;20.37;57.89;99768.94;10452736;27;1977;-67
2023/09/09 01:44:15;;;;;;;;;;;;;;;20.35;57.79;99766.38;10453769;27;813;-67
2023/09/09 01:49:11;;;;;;;;;;;;;;;20.34;57.77;99758.53;10453542;27;809;-67
2023/09/09 01:54:07;;;;;;;;;;;;;;;20.35;57.90;99761.09;10453451;27;813;-67
2023/09/09 01:59:03;;;;;;;;;;;;;;;20.32;57.79;99763.91;10452411;27;1902;-67
2023/09/09 02:03:59;;;;;;;;;;;;;;;20.33;57.92;99768.28;10452991;27;908;-67
2023/09/09 02:08:55;;;;;;;;;;;;;;;20.28;57.72;99762.38;10452201;27;920;-67
2023/09/09 02:13:51;;;;;;;;;;;;;;;20.27;57.66;99765.94;10453013;27;876;-67
2023/09/09 02:18:46;;;;;;;;;;;;;;;20.22;57.70;99765.31;10451713;27;1893;-67
2023/09/09 02:23:42;;;;;;;;;;;;;;;20.24;57.46;99762.59;10452361;27;809;-67
2023/09/09 02:28:38;;;;;;;;;;;;;;;20.23;57.52;99756.47;10451266;27;1253;-67
2023/09/09 02:33:34;;;;;;;;;;;;;;;20.21;57.51;99758.34;10451223;27;921;-67
2023/09/09 02:38:30;;;;;;;;;;;;;;;20.23;57.37;99759.09;10450997;27;1909;-67
2023/09/09 02:43:26;;;;;;;;;;;;;;;20.20;57.45;99759.28;10450864;27;798;-67
2023/09/09 02:48:22;;;;;;;;;;;;;;;20.17;57.42;99756.78;10450289;27;923;-67
2023/09/09 02:53:18;;;;;;;;;;;;;;;20.16;57.28;99760.38;10449907;27;849;-67
2023/09/09 02:58:14;;;;;;;;;;;;;;;20.17;57.28;99756.78;10449672;27;1897;-67
2023/09/09 03:03:09;;;;;;;;;;;;;;;20.17;57.62;99756.78;10450783;27;845;-67
2023/09/09 03:08:05;;;;;;;;;;;;;;;20.16;57.68;99752.44;10451000;27;805;-66
2023/09/09 03:13:01;;;;;;;;;;;;;;;20.13;57.51;99752.59;10450063;27;904;-67
2023/09/09 03:17:57;;;;;;;;;;;;;;;20.12;57.46;99749.09;10449772;27;1897;-67
2023/09/09 03:22:53;;;;;;;;;;;;;;;20.11;57.37;99752.66;10450301;27;833;-67
2023/09/09 03:27:49;;;;;;;;;;;;;;;20.09;57.42;99754.53;10449247;28;1056;-67
2023/09/09 03:32:45;;;;;;;;;;;;;;;20.06;57.33;99753.84;10449652;28;809;-67
2023/09/09 03:37:41;;;;;;;;;;;;;;;20.04;57.39;99756.59;10450009;28;1967;-67
2023/09/09 03:42:38;;;;;;;;;;;;;;;20.04;57.08;99755.72;10430931;28;971;-67
2023/09/09 03:47:34;;;;;;;;;;;;;;;20.03;57.29;99748.72;10448639;28;1701;-67
2023/09/09 03:52:30;;;;;;;;;;;;;;;20.04;57.07;99756.59;10450117;28;932;-67
2023/09/09 03:57:26;;;;;;;;;;;;;;;20.03;57.36;99754.00;10452537;27;1906;-66
2023/09/09 04:02:22;;;;;;;;;;;;;;;20.03;57.42;99764.59;10457253;27;816;-67
2023/09/09 04:07:18;;;;;;;;;;;;;;;20.00;57.28;99762.97;10457736;27;792;-66
2023/09/09 04:12:13;;;;;;;;;;;;;;;19.95;57.31;99765.00;10457601;27;884;-67
2023/09/09 04:17:09;;;;;;;;;;;;;;;19.97;57.02;99764.94;10456609;27;1902;-66
2023/09/09 04:22:05;;;;;;;;;;;;;;;19.93;57.16;99764.22;10456447;27;837;-67
2023/09/09 04:27:02;;;;;;;;;;;;;;;19.92;56.99;99763.34;10456289;27;1017;-67
2023/09/09 04:31:58;;;;;;;;;;;;;;;19.87;57.24;99762.75;10455460;27;1525;-67
2023/09/09 04:36:54;;;;;;;;;;;;;;;19.87;57.10;99754.81;10456404;27;1918;-67
2023/09/09 04:41:50;;;;;;;;;;;;;;;19.88;57.09;99755.66;10455669;27;889;-66
2023/09/09 04:46:46;;;;;;;;;;;;;;;19.87;57.03;99757.44;10456123;27;825;-67
2023/09/09 04:51:42;;;;;;;;;;;;;;;19.89;57.13;99757.38;10455326;27;885;-67
2023/09/09 04:56:38;;;;;;;;;;;;;;;19.88;57.06;99759.16;10455123;27;980;-67
2023/09/09 05:01:34;;;;;;;;;;;;;;;19.85;57.16;99766.41;10454859;27;1956;-67
2023/09/09 05:06:30;;;;;;;;;;;;;;;19.82;57.17;99771.84;10454622;27;775;-67
2023/09/09 05:11:25;;;;;;;;;;;;;;;19.80;57.08;99766.63;10454392;27;931;-67
2023/09/09 05:16:21;;;;;;;;;;;;;;;19.77;56.82;99773.88;10454972;27;809;-67
2023/09/09 05:21:17;;;;;;;;;;;;;;;19.75;56.95;99775.72;10454131;27;1969;-66
2023/09/09 05:26:13;;;;;;;;;;;;;;;19.73;56.97;99780.25;10454593;27;875;-67
2023/09/09 05:31:09;;;;;;;;;;;;;;;19.74;57.03;99779.31;10454538;27;1299;-67
2023/09/09 05:36:05;;;;;;;;;;;;;;;18.88;59.47;99789.63;10453573;27;780;-66
2023/09/09 05:41:01;;;;;;;;;;;;;;;18.21;61.92;99787.41;10452484;27;1901;-67
2023/09/09 05:45:57;;;;;;;;;;;;;;;17.99;62.98;99792.75;10453530;27;722;-67
2023/09/09 05:50:55;;;;;;;;;;;;;;;17.98;63.36;99793.69;10452938;27;851;-66
2023/09/09 05:55:51;;;;;;;;;;;;;;;17.96;63.41;99786.69;10452695;27;893;-66
2023/09/09 06:00:47;;;;;;;;;;;;;;;18.03;63.69;99800.47;10452735;27;1885;-66
2023/09/09 06:05:43;;;;;;;;;;;;;;;18.12;63.48;99793.94;10453010;27;775;-67
2023/09/09 06:10:38;;;;;;;;;;;;;;;18.18;63.68;99799.81;10452165;27;814;-66
2023/09/09 06:15:34;;;;;;;;;;;;;;;18.11;65.42;99803.63;10451497;27;907;-67
2023/09/09 06:20:30;;;;;;;;;;;;;;;18.69;63.16;99805.44;10451790;27;1893;-67
2023/09/09 06:25:26;;;;;;;;;;;;;;;19.19;61.31;99806.66;10419175;27;1298;-67
2023/09/09 06:30:22;;;;;;;;;;;;;;;19.31;61.32;99811.38;10409356;28;1307;-67
2023/09/09 06:35:18;;;;;;;;;;;;;;;19.36;61.68;99822.56;10408878;28;1087;-66
2023/09/09 06:40:14;;;;;;;;;;;;;;;19.35;62.15;99826.13;10408792;28;1909;-66
2023/09/09 06:45:12;;;;;;;;;;;;;;;19.48;61.96;99821.09;10408577;28;925;-66
2023/09/09 06:50:08;;;;;;;;;;;;;;;19.53;62.74;99827.03;10409604;28;904;-66
2023/09/09 06:55:04;;;;;;;;;;;;;;;19.60;62.04;99831.09;10408903;28;898;-66
2023/09/09 07:00:00;;;;;;;;;;;;;;;19.60;62.20;99830.25;10409317;28;1957;-66
2023/09/09 07:04:56;;;;;;;;;;;;;;;19.66;62.50;99829.94;10407972;28;916;-66
2023/09/09 07:09:52;;;;;;;;;;;;;;;19.68;62.66;99825.44;10408262;28;865;-66
2023/09/09 07:14:48;;;;;;;;;;;;;;;19.67;62.95;99836.94;10408561;28;837;-66
2023/09/09 07:19:44;;;;;;;;;;;;;;;19.73;63.04;99841.06;10408284;28;1898;-66
2023/09/09 07:24:40;;;;;;;;;;;;;;;19.72;63.64;99845.50;10407744;28;790;-66
2023/09/09 07:29:35;;;;;;;;;;;;;;;19.77;63.53;99840.84;10407909;28;1112;-66
2023/09/09 07:34:31;;;;;;;;;;;;;;;19.80;63.96;99843.34;10417390;28;943;-67
2023/09/09 07:39:27;;;;;;;;;;;;;;;19.84;63.62;99834.31;10417098;28;1960;-66
2023/09/09 07:44:23;;;;;;;;;;;;;;;19.88;63.93;99841.16;10451535;27;1115;-67
2023/09/09 07:49:21;;;;;;;;;;;;;;;19.93;63.90;99840.94;10458450;27;946;-66
2023/09/09 07:54:17;;;;;;;;;;;;;;;19.94;63.45;99845.31;10457565;27;766;-66
2023/09/09 07:59:13;;;;;;;;;;;;;;;19.98;63.26;99846.84;10456665;27;1889;-67
2023/09/09 08:04:09;;;;;;;;;;;;;;;20.03;62.94;99843.97;10457201;27;995;-67
2023/09/09 08:09:05;;;;;;;;;;;;;;;20.03;62.74;99847.47;10457055;27;834;-67
2023/09/09 08:14:01;;;;;;;;;;;;;;;20.04;62.58;99851.84;10457625;27;857;-68
2023/09/09 08:18:56;;;;;;;;;;;;;;;20.05;62.47;99842.97;10456978;27;1897;-68
2023/09/09 08:23:53;;;;;;;;;;;;;;;20.05;62.22;99847.41;10456510;27;757;-68
2023/09/09 08:28:49;;;;;;;;;;;;;;;20.06;62.20;99834.06;10456483;27;1909;-67
2023/09/09 08:33:45;;;;;;;;;;;;;;;20.09;62.07;99843.66;10456102;27;1009;-67
2023/09/09 08:38:41;;;;;;;;;;;;;;;20.13;61.83;99843.41;10455819;27;1973;-67
2023/09/09 08:43:36;;;;;;;;;;;;;;;20.15;61.98;99848.66;10454993;27;761;-67
2023/09/09 08:48:32;;;;;;;;;;;;;;;20.18;61.77;99848.47;10454926;27;943;-67
2023/09/09 08:53:28;;;;;;;;;;;;;;;20.20;61.59;99846.63;10455218;27;793;-67
2023/09/09 08:58:24;;;;;;;;;;;;;;;20.20;61.88;99856.31;10455618;27;1972;-67
2023/09/09 09:03:20;;;;;;;;;;;;;;;20.19;61.96;99847.53;10455614;27;871;-66
2023/09/09 09:08:16;;;;;;;;;;;;;;;20.21;61.68;99858.06;10431133;27;1104;-67
2023/09/09 09:13:12;;;;;;;;;;;;;;;20.23;61.63;99857.03;10412445;28;892;-67
2023/09/09 09:18:07;;;;;;;;;;;;;;;20.24;61.97;99858.75;10411880;28;1897;-66
2023/09/09 09:23:05;;;;;;;;;;;;;;;20.26;61.91;99856.03;10411845;28;855;-66
2023/09/09 09:28:01;;;;;;;;;;;;;;;20.23;62.02;99851.75;10411451;28;1256;-67
2023/09/09 09:32:57;;;;;;;;;;;;;;;20.23;62.32;99851.75;10412448;28;810;-67
2023/09/09 09:37:53;;;;;;;;;;;;;;;20.23;62.25;99857.03;10410922;28;1918;-67
2023/09/09 09:42:50;;;;;;;;;;;;;;;20.23;62.21;99856.19;10411380;28;1603;-67
2023/09/09 09:47:50;;;;;;;;;;;;;;;20.25;62.60;99854.28;10410419;28;972;-67
2023/09/09 09:52:46;;;;;;;;;;;;;;;20.25;62.46;99855.19;10410814;28;870;-67
2023/09/09 09:57:42;;;;;;;;;;;;;;;20.27;62.74;99852.44;10408999;28;1943;-67
2023/09/09 10:02:38;;;;;;;;;;;;;;;20.27;62.86;99849.78;10411007;28;814;-67
2023/09/09 10:07:34;;;;;;;;;;;;;;;20.28;62.21;99844.44;10409572;28;861;-67
2023/09/09 10:12:29;;;;;;;;;;;;;;;20.27;62.39;99840.03;10409835;28;856;-67
2023/09/09 10:17:25;;;;;;;;;;;;;;;20.29;62.23;99851.41;10410262;28;1893;-67
2023/09/09 10:22:21;;;;;;;;;;;;;;;20.27;62.49;99841.84;10409427;28;802;-66
2023/09/09 10:27:18;;;;;;;;;;;;;;;20.26;62.20;99837.50;10409592;28;921;-67
2023/09/09 10:32:15;;;;;;;;;;;;;;;20.27;62.10;99845.34;10410123;28;1377;-66
2023/09/09 10:37:11;;;;;;;;;;;;;;;20.27;62.16;99833.91;10408904;28;1913;-67
2023/09/09 10:42:07;;;;;;;;;;;;;;;20.28;62.09;99828.53;10408701;28;866;-67
2023/09/09 10:47:03;;;;;;;;;;;;;;;20.28;62.06;99822.41;10408576;28;838;-67
2023/09/09 10:51:59;;;;;;;;;;;;;;;20.29;62.55;99824.94;10407809;28;901;-67
2023/09/09 10:56:55;;;;;;;;;;;;;;;20.27;62.49;99821.53;10408273;28;789;-67
2023/09/09 11:01:51;;;;;;;;;;;;;;;20.29;62.24;99822.31;10407346;28;1894;-67
2023/09/09 11:06:46;;;;;;;;;;;;;;;20.30;62.16;99833.75;10408764;28;872;-67
2023/09/09 11:11:44;;;;;;;;;;;;;;;20.29;62.07;99827.59;10408842;28;983;-67
2023/09/09 11:16:40;;;;;;;;;;;;;;;20.28;62.05;99823.25;10408156;28;791;-67
2023/09/09 11:21:36;;;;;;;;;;;;;;;20.30;61.89;99831.97;10407373;28;1894;-67
2023/09/09 11:26:32;;;;;;;;;;;;;;;20.30;61.93;99821.38;10408523;28;864;-67
2023/09/09 11:31:28;;;;;;;;;;;;;;;20.28;62.24;99823.25;10408382;28;1124;-67
2023/09/09 11:36:24;;;;;;;;;;;;;;;20.29;62.16;99822.31;10407726;28;767;-67
2023/09/09 11:41:20;;;;;;;;;;;;;;;20.29;62.34;99821.44;10407711;28;1910;-67
2023/09/09 11:46:16;;;;;;;;;;;;;;;20.29;62.18;99821.44;10408401;28;865;-67
2023/09/09 11:51:12;;;;;;;;;;;;;;;20.28;62.08;99817.94;10407454;28;948;-67
2023/09/09 11:56:07;;;;;;;;;;;;;;;20.29;62.39;99824.94;10408031;28;790;-67
2023/09/09 12:01:04;;;;;;;;;;;;;;;20.29;62.36;99821.44;10407337;28;1893;-66
2023/09/09 12:05:59;;;;;;;;;;;;;;;20.29;62.28;99824.94;10407100;28;945;-66
2023/09/09 12:10:55;;;;;;;;;;;;;;;20.30;62.16;99817.84;10407079;28;853;-67
2023/09/09 12:15:52;;;;;;;;;;;;;;;20.31;62.14;99819.59;10406820;28;774;-66
2023/09/09 12:20:47;;;;;;;;;;;;;;;20.30;62.16;99816.09;10413028;28;1901;-66
2023/09/09 12:25:43;;;;;;;;;;;;;;;20.30;62.44;99818.75;10415065;28;857;-66
2023/09/09 12:30:39;;;;;;;;;;;;;;;20.30;62.56;99815.22;10414861;28;1139;-67
2023/09/09 12:35:35;;;;;;;;;;;;;;;20.30;62.49;99813.44;10414807;28;883;-66
2023/09/09 12:40:31;;;;;;;;;;;;;;;20.30;62.76;99809.91;10414595;28;1906;-67
2023/09/09 12:45:27;;;;;;;;;;;;;;;20.29;62.71;99810.88;10413897;28;809;-66
2023/09/09 12:50:23;;;;;;;;;;;;;;;20.31;62.47;99816.94;10413710;28;841;-66
2023/09/09 12:55:19;;;;;;;;;;;;;;;20.30;62.59;99809.91;10414070;28;805;-66
2023/09/09 13:00:14;;;;;;;;;;;;;;;20.31;62.57;99811.66;10413811;28;1957;-66
2023/09/09 13:05:10;;;;;;;;;;;;;;;20.31;62.56;99811.66;10413248;28;774;-66
2023/09/09 13:10:06;;;;;;;;;;;;;;;20.32;62.55;99808.06;10412843;28;873;-67
2023/09/09 13:15:02;;;;;;;;;;;;;;;20.33;62.60;99809.75;10394456;28;2611;-66
2023/09/09 13:19:58;;;;;;;;;;;;;;;20.33;62.74;99810.63;10413048;28;1898;-66
2023/09/09 13:24:54;;;;;;;;;;;;;;;20.33;62.68;99805.34;10412302;28;875;-66
2023/09/09 13:29:50;;;;;;;;;;;;;;;20.35;62.49;99802.59;10411825;28;1650;-66
2023/09/09 13:34:46;;;;;;;;;;;;;;;20.35;62.72;99802.59;10412540;28;881;-66
2023/09/09 13:39:42;;;;;;;;;;;;;;;20.36;62.67;99799.88;10412214;28;1906;-66
2023/09/09 13:44:37;;;;;;;;;;;;;;;20.36;62.66;99799.88;10412143;28;861;-66
2023/09/09 13:49:35;;;;;;;;;;;;;;;20.38;62.45;99796.28;10411306;28;916;-67
2023/09/09 13:54:31;;;;;;;;;;;;;;;20.39;62.57;99798.00;10411962;28;855;-67
2023/09/09 13:59:27;;;;;;;;;;;;;;;20.40;62.49;99786.47;10410977;28;1943;-66
2023/09/09 14:04:23;;;;;;;;;;;;;;;20.42;62.59;99784.59;10411358;28;889;-66
2023/09/09 14:09:19;;;;;;;;;;;;;;;20.42;62.63;99779.31;10410485;28;937;-67
2023/09/09 14:14:17;;;;;;;;;;;;;;;20.43;62.55;99781.84;10410292;28;806;-66
2023/09/09 14:19:13;;;;;;;;;;;;;;;20.44;62.44;99780.94;10410572;28;1939;-66
2023/09/09 14:24:09;;;;;;;;;;;;;;;20.45;62.52;99781.78;10409905;28;855;-67
2023/09/09 14:29:04;;;;;;;;;;;;;;;20.46;62.31;99781.72;10410591;28;1406;-66
2023/09/09 14:34:00;;;;;;;;;;;;;;;20.47;62.50;99774.63;10409595;28;865;-67
2023/09/09 14:38:56;;;;;;;;;;;;;;;20.49;62.25;99783.34;10409365;28;1977;-67
2023/09/09 14:43:52;;;;;;;;;;;;;;;20.49;62.27;99770.09;10408711;28;821;-66
2023/09/09 14:48:48;;;;;;;;;;;;;;;20.51;62.32;99776.16;10409689;28;823;-66
2023/09/09 14:53:44;;;;;;;;;;;;;;;20.51;62.38;99777.03;10408960;28;969;-67
2023/09/09 14:58:40;;;;;;;;;;;;;;;20.53;62.43;99777.78;10408643;28;1902;-66
2023/09/09 15:03:36;;;;;;;;;;;;;;;20.55;62.26;99778.59;10408006;28;944;-67
2023/09/09 15:08:31;;;;;;;;;;;;;;;20.56;62.22;99771.50;10408421;28;935;-66
2023/09/09 15:13:27;;;;;;;;;;;;;;;20.57;62.28;99770.56;10408279;28;976;-66
2023/09/09 15:18:24;;;;;;;;;;;;;;;20.59;62.24;99773.97;10408789;28;1959;-66
2023/09/09 15:23:19;;;;;;;;;;;;;;;20.59;62.21;99766.00;10407950;28;850;-66
2023/09/09 15:28:18;;;;;;;;;;;;;;;20.61;62.28;99772.09;10408482;28;1331;-66
2023/09/09 15:33:14;;;;;;;;;;;;;;;20.63;62.11;99769.38;10408353;28;835;-66
2023/09/09 15:38:10;;;;;;;;;;;;;;;20.69;62.00;99776.97;10407686;28;1914;-65
2023/09/09 15:43:06;;;;;;;;;;;;;;;20.71;61.69;99773.31;10407045;28;917;-65
2023/09/09 15:48:03;;;;;;;;;;;;;;;20.74;61.46;99766.97;10407481;28;829;-69
2023/09/09 15:52:59;;;;;;;;;;;;;;;20.75;61.34;99768.69;10410030;28;825;-69
2023/09/09 15:57:55;;;;;;;;;;;;;;;20.75;61.28;99769.56;10415704;28;1897;-69
2023/09/09 16:02:51;;;;;;;;;;;;;;;20.78;61.35;99766.72;10415552;28;813;-69
2023/09/09 16:07:47;;;;;;;;;;;;;;;20.78;61.30;99774.69;10415201;28;861;-69
2023/09/09 16:12:42;;;;;;;;;;;;;;;20.81;61.34;99772.81;10415085;28;874;-69
2023/09/09 16:17:38;;;;;;;;;;;;;;;20.82;61.12;99774.50;10414964;28;1934;-69
2023/09/09 16:22:34;;;;;;;;;;;;;;;20.83;61.07;99776.19;10414785;28;754;-69
2023/09/09 16:27:30;;;;;;;;;;;;;;;20.85;61.08;99779.63;10414616;28;1321;-69
2023/09/09 16:32:26;;;;;;;;;;;;;;;20.86;61.20;99776.91;10414417;28;949;-69
2023/09/09 16:37:22;;;;;;;;;;;;;;;20.88;61.08;99779.44;10414147;28;1975;-68
2023/09/09 16:42:19;;;;;;;;;;;;;;;20.90;61.24;99780.22;10414088;28;892;-69
2023/09/09 16:47:15;;;;;;;;;;;;;;;20.90;61.30;99781.06;10414424;28;828;-68
2023/09/09 16:52:11;;;;;;;;;;;;;;;20.92;61.20;99786.31;10414290;28;786;-70
2023/09/09 16:57:09;;;;;;;;;;;;;;;20.92;61.29;99794.25;10413701;28;880;-67
2023/09/09 17:02:05;;;;;;;;;;;;;;;20.93;61.12;99791.53;10413042;28;1893;-69
2023/09/09 17:07:01;;;;;;;;;;;;;;;20.96;61.13;99798.47;10411878;27;1272;-71
2023/09/09 17:11:56;;;;;;;;;;;;;;;20.97;61.21;99805.44;10412914;28;933;-71
2023/09/09 17:16:52;;;;;;;;;;;;;;;20.98;61.22;99801.84;10413393;28;877;-71
2023/09/09 17:21:48;;;;;;;;;;;;;;;20.99;61.05;99798.28;10413189;28;1897;-70
2023/09/09 17:26:44;;;;;;;;;;;;;;;21.00;61.02;99799.97;10412205;28;738;-71
2023/09/09 17:31:40;;;;;;;;;;;;;;;21.01;60.99;99806.97;10412552;28;1343;-72
2023/09/09 17:36:36;;;;;;;;;;;;;;;21.01;61.33;99805.19;10412704;28;895;-69
2023/09/09 17:41:32;;;;;;;;;;;;;;;21.03;61.10;99805.09;10411754;28;1969;-69
2023/09/09 17:46:28;;;;;;;;;;;;;;;21.05;61.48;99812.97;10412192;28;821;-71
2023/09/09 17:51:23;;;;;;;;;;;;;;;21.06;61.17;99814.69;10412203;28;901;-71
2023/09/09 17:56:20;;;;;;;;;;;;;;;21.06;61.32;99826.13;10411803;28;852;-71
2023/09/09 18:01:15;;;;;;;;;;;;;;;21.07;61.17;99825.19;10410673;28;1901;-71
2023/09/09 18:06:11;;;;;;;;;;;;;;;21.08;61.16;99829.56;10410730;28;1062;-71
2023/09/09 18:11:07;;;;;;;;;;;;;;;21.09;61.29;99836.59;10410542;28;818;-71
2023/09/09 18:16:03;;;;;;;;;;;;;;;21.09;61.17;99839.22;10409377;28;980;-71
2023/09/09 18:20:59;;;;;;;;;;;;;;;21.11;61.23;99842.63;10409532;28;1915;-71
2023/09/09 18:25:55;;;;;;;;;;;;;;;21.11;61.08;99845.28;10410530;28;852;-70
2023/09/09 18:30:51;;;;;;;;;;;;;;;21.13;61.12;99853.16;10409269;28;1427;-71
2023/09/09 18:35:47;;;;;;;;;;;;;;;21.13;61.09;99851.34;10409507;28;850;-72
2023/09/09 18:40:43;;;;;;;;;;;;;;;21.15;61.06;99860.09;10409297;28;1969;-71
2023/09/09 18:45:39;;;;;;;;;;;;;;;21.15;61.20;99865.38;10409216;28;892;-71
2023/09/09 18:50:35;;;;;;;;;;;;;;;21.18;60.95;99872.31;10409626;28;859;-70
2023/09/09 18:55:31;;;;;;;;;;;;;;;21.18;60.97;99880.25;10409477;28;852;-71
2023/09/09 19:00:27;;;;;;;;;;;;;;;21.20;61.09;99886.34;10407963;28;1910;-71
2023/09/09 19:05:23;;;;;;;;;;;;;;;21.19;60.91;99879.31;10409057;28;817;-71
2023/09/09 19:10:19;;;;;;;;;;;;;;;21.21;60.89;99890.69;10408415;28;866;-71
2023/09/09 19:15:18;;;;;;;;;;;;;;;21.20;61.03;99887.19;10408249;28;1213;-71
2023/09/09 19:20:14;;;;;;;;;;;;;;;21.22;60.94;99892.41;10408043;28;1953;-71
2023/09/09 19:25:10;;;;;;;;;;;;;;;21.23;60.93;99892.31;10408581;28;769;-71
2023/09/09 19:30:06;;;;;;;;;;;;;;;21.24;61.11;99901.97;10408478;28;1332;-71
2023/09/09 19:35:02;;;;;;;;;;;;;;;21.26;60.89;99893.09;10407724;28;790;-68
2023/09/09 19:39:58;;;;;;;;;;;;;;;21.20;61.50;99896.94;10407462;28;1906;-68
2023/09/09 19:44:57;;;;;;;;;;;;;;;21.18;61.99;99909.44;10408161;28;862;-68
2023/09/09 19:49:53;;;;;;;;;;;;;;;21.18;61.99;99906.78;10407516;28;869;-68
2023/09/09 19:54:48;;;;;;;;;;;;;;;21.18;62.17;99906.78;10407923;28;838;-69
2023/09/09 19:59:44;;;;;;;;;;;;;;;21.15;62.09;99897.19;10407191;28;1886;-68
2023/09/09 20:04:40;;;;;;;;;;;;;;;21.15;62.22;99906.94;10407126;28;763;-69
2023/09/09 20:09:36;;;;;;;;;;;;;;;21.16;62.08;99904.19;10406927;28;919;-69
2023/09/09 20:14:32;;;;;;;;;;;;;;;21.17;61.93;99913.88;10407785;28;856;-68
2023/09/09 20:19:28;;;;;;;;;;;;;;;21.17;62.00;99911.22;10406721;28;1882;-69
2023/09/09 20:24:24;;;;;;;;;;;;;;;21.18;62.22;99912.06;10406926;28;772;-69
2023/09/09 20:29:20;;;;;;;;;;;;;;;21.17;62.01;99913.88;10405325;28;1441;-69
2023/09/09 20:34:15;;;;;;;;;;;;;;;21.18;62.18;99915.56;10407360;28;948;-69
2023/09/09 20:39:11;;;;;;;;;;;;;;;21.18;62.10;99918.22;10408095;28;1910;-68
2023/09/09 20:44:07;;;;;;;;;;;;;;;21.16;62.26;99914.78;10414045;28;813;-69
2023/09/09 20:49:03;;;;;;;;;;;;;;;21.15;62.28;99913.09;10414572;28;806;-68
2023/09/09 20:53:59;;;;;;;;;;;;;;;21.15;62.27;99912.25;10413632;28;974;-68
2023/09/09 20:58:55;;;;;;;;;;;;;;;21.18;62.07;99914.72;10414436;28;1894;-68
2023/09/09 21:03:51;;;;;;;;;;;;;;;21.19;62.04;99921.72;10413280;28;766;-69
2023/09/09 21:08:47;;;;;;;;;;;;;;;21.18;61.87;99920.88;10412477;28;805;-68
2023/09/09 21:13:42;;;;;;;;;;;;;;;21.16;62.02;99922.75;10413233;28;774;-69
2023/09/09 21:18:38;;;;;;;;;;;;;;;21.16;62.15;99917.44;10412697;28;1944;-69
2023/09/09 21:23:34;;;;;;;;;;;;;;;21.17;62.11;99919.19;10411874;28;1153;-69
2023/09/09 21:28:30;;;;;;;;;;;;;;;21.19;62.02;99919.06;10412672;28;1096;-69
2023/09/09 21:33:27;;;;;;;;;;;;;;;21.19;61.99;99916.44;10412083;28;1053;-68
2023/09/09 21:38:23;;;;;;;;;;;;;;;21.19;61.99;99922.56;10411934;28;1917;-69
2023/09/09 21:43:19;;;;;;;;;;;;;;;21.19;62.12;99925.22;10411152;28;861;-69
2023/09/09 21:48:15;;;;;;;;;;;;;;;21.19;61.95;99921.72;10411744;28;841;-69
2023/09/09 21:53:11;;;;;;;;;;;;;;;21.18;62.07;99920.88;10411249;28;805;-68
2023/09/09 21:58:07;;;;;;;;;;;;;;;21.19;61.97;99922.56;10412186;28;1898;-69
2023/09/09 22:03:05;;;;;;;;;;;;;;;21.19;62.11;99922.56;10411231;28;974;-68
2023/09/09 22:08:01;;;;;;;;;;;;;;;21.18;61.92;99920.88;10410777;28;880;-69
2023/09/09 22:12:57;;;;;;;;;;;;;;;21.14;62.16;99911.41;10410469;28;852;-69
2023/09/09 22:17:53;;;;;;;;;;;;;;;21.18;61.91;99920.88;10410285;28;1969;-69
2023/09/09 22:22:49;;;;;;;;;;;;;;;21.16;62.00;99914.78;10410937;28;878;-68
2023/09/09 22:27:45;;;;;;;;;;;;;;;21.18;61.92;99920.88;10409270;28;1295;-69
2023/09/09 22:32:41;;;;;;;;;;;;;;;21.19;62.06;99922.56;10409844;28;990;-69
2023/09/09 22:37:39;;;;;;;;;;;;;;;21.18;61.87;99920.03;10409185;28;1979;-69
2023/09/09 22:42:34;;;;;;;;;;;;;;;21.18;62.01;99914.72;10409366;28;858;-69
2023/09/09 22:47:30;;;;;;;;;;;;;;;21.18;62.04;99907.63;10409187;28;862;-69
2023/09/09 22:52:26;;;;;;;;;;;;;;;21.18;61.83;99904.97;10409628;28;801;-69
2023/09/09 22:57:22;;;;;;;;;;;;;;;21.18;61.96;99915.56;10408263;28;995;-69
2023/09/09 23:02:18;;;;;;;;;;;;;;;21.18;61.86;99914.72;10408230;28;1894;-69
2023/09/09 23:07:14;;;;;;;;;;;;;;;21.18;61.80;99923.53;10408504;28;828;-69
2023/09/09 23:12:10;;;;;;;;;;;;;;;21.17;61.71;99919.19;10409816;28;1007;-69
2023/09/09 23:17:06;;;;;;;;;;;;;;;21.19;61.78;99927.03;10408267;28;1250;-69
2023/09/09 23:22:01;;;;;;;;;;;;;;;21.15;61.72;99914.91;10408076;28;1959;-69
2023/09/09 23:26:57;;;;;;;;;;;;;;;21.17;61.78;99919.19;10408557;28;1155;-68
2023/09/09 23:31:53;;;;;;;;;;;;;;;21.15;61.81;99915.75;10408674;28;1144;-69
2023/09/09 23:36:49;;;;;;;;;;;;;;;21.16;61.75;99919.25;10407831;28;769;-68
2023/09/09 23:41:45;;;;;;;;;;;;;;;21.16;61.53;99917.44;10408225;28;1901;-69
2023/09/09 23:46:41;;;;;;;;;;;;;;;21.12;61.70;99920.38;10407024;28;1383;-68
2023/09/09 23:51:37;;;;;;;;;;;;;;;21.10;61.63;99920.44;10408168;28;794;-69
2023/09/09 23:56:32;;;;;;;;;;;;;;;21.09;61.65;99916.09;10406904;28;900;-68
